sensor_id;sensor_type;location;lat;lon;timestamp;pressure;altitude;pressure_sealevel;temperature
73662;BMP280;61956;52.540;13.382;2023-05-24T00:01:33;81565.59;;;11.42
73662;BMP280;61956;52.540;13.382;2023-05-24T00:04:03;82200.34;;;11.46
73662;BMP280;61956;52.540;13.382;2023-05-24T00:06:32;83067.59;;;11.52
73662;BMP280;61956;52.540;13.382;2023-05-24T00:09:02;82411.28;;;11.48
73662;BMP280;61956;52.540;13.382;2023-05-24T00:11:32;81930.06;;;11.43
73662;BMP280;61956;52.540;13.382;2023-05-24T00:14:01;81774.78;;;11.38
73662;BMP280;61956;52.540;13.382;2023-05-24T00:16:30;81645.19;;;11.35
73662;BMP280;61956;52.540;13.382;2023-05-24T00:19:03;81551.75;;;11.33
73662;BMP280;61956;52.540;13.382;2023-05-24T00:21:32;82896.09;;;11.41
73662;BMP280;61956;52.540;13.382;2023-05-24T00:24:02;82132.88;;;11.35
73662;BMP280;61956;52.540;13.382;2023-05-24T00:26:31;82653.50;;;11.39
73662;BMP280;61956;52.540;13.382;2023-05-24T00:29:01;82761.91;;;11.39
73662;BMP280;61956;52.540;13.382;2023-05-24T00:31:34;83909.50;;;11.46
73662;BMP280;61956;52.540;13.382;2023-05-24T00:34:03;84067.06;;;11.50
73662;BMP280;61956;52.540;13.382;2023-05-24T00:36:32;83704.16;;;11.49
73662;BMP280;61956;52.540;13.382;2023-05-24T00:39:02;83558.28;;;11.46
73662;BMP280;61956;52.540;13.382;2023-05-24T00:41:32;84010.22;;;11.50
73662;BMP280;61956;52.540;13.382;2023-05-24T00:44:01;84670.28;;;11.55
73662;BMP280;61956;52.540;13.382;2023-05-24T00:46:34;84290.50;;;11.53
73662;BMP280;61956;52.540;13.382;2023-05-24T00:49:03;85651.16;;;11.62
73662;BMP280;61956;52.540;13.382;2023-05-24T00:51:33;86082.41;;;11.68
73662;BMP280;61956;52.540;13.382;2023-05-24T00:54:04;85936.97;;;11.68
73662;BMP280;61956;52.540;13.382;2023-05-24T00:56:34;85697.19;;;11.68
73662;BMP280;61956;52.540;13.382;2023-05-24T00:59:03;84322.81;;;11.58
73662;BMP280;61956;52.540;13.382;2023-05-24T01:01:35;85377.88;;;11.65
73662;BMP280;61956;52.540;13.382;2023-05-24T01:04:06;84887.41;;;11.61
73662;BMP280;61956;52.540;13.382;2023-05-24T01:06:43;84701.34;;;11.59
73662;BMP280;61956;52.540;13.382;2023-05-24T01:09:28;84603.16;;;11.59
73662;BMP280;61956;52.540;13.382;2023-05-24T01:12:12;84513.97;;;11.56
73662;BMP280;61956;52.540;13.382;2023-05-24T01:14:54;84374.47;;;11.54
73662;BMP280;61956;52.540;13.382;2023-05-24T01:17:43;84362.84;;;11.53
73662;BMP280;61956;52.540;13.382;2023-05-24T01:20:19;86234.28;;;11.68
73662;BMP280;61956;52.540;13.382;2023-05-24T01:23:22;86324.25;;;11.71
73662;BMP280;61956;52.540;13.382;2023-05-24T01:26:13;85432.81;;;11.66
73662;BMP280;61956;52.540;13.382;2023-05-24T01:28:53;84564.38;;;11.57
73662;BMP280;61956;52.540;13.382;2023-05-24T01:31:22;84297.63;;;11.55
73662;BMP280;61956;52.540;13.382;2023-05-24T01:33:52;84532.69;;;11.55
73662;BMP280;61956;52.540;13.382;2023-05-24T01:38:52;84895.09;;;11.57
73662;BMP280;61956;52.540;13.382;2023-05-24T01:41:29;85134.81;;;11.59
73662;BMP280;61956;52.540;13.382;2023-05-24T01:44:16;83905.59;;;11.49
73662;BMP280;61956;52.540;13.382;2023-05-24T01:47:00;84949.31;;;11.55
73662;BMP280;61956;52.540;13.382;2023-05-24T01:49:37;85731.88;;;11.61
73662;BMP280;61956;52.540;13.382;2023-05-24T01:52:15;84967.44;;;11.57
73662;BMP280;61956;52.540;13.382;2023-05-24T01:54:51;84563.69;;;11.53
73662;BMP280;61956;52.540;13.382;2023-05-24T01:57:25;84297.59;;;11.51
73662;BMP280;61956;52.540;13.382;2023-05-24T01:59:59;84670.88;;;11.52
73662;BMP280;61956;52.540;13.382;2023-05-24T02:02:38;85296.25;;;11.56
73662;BMP280;61956;52.540;13.382;2023-05-24T02:05:09;84968.03;;;11.54
73662;BMP280;61956;52.540;13.382;2023-05-24T02:07:38;83882.38;;;11.45
73662;BMP280;61956;52.540;13.382;2023-05-24T02:10:08;83969.53;;;11.45
73662;BMP280;61956;52.540;13.382;2023-05-24T02:12:38;83979.84;;;11.43
73662;BMP280;61956;52.540;13.382;2023-05-24T02:15:10;84059.25;;;11.42
73662;BMP280;61956;52.540;13.382;2023-05-24T02:17:41;84266.53;;;11.45
73662;BMP280;61956;52.540;13.382;2023-05-24T02:20:11;84810.97;;;11.46
73662;BMP280;61956;52.540;13.382;2023-05-24T02:22:41;84883.31;;;11.46
73662;BMP280;61956;52.540;13.382;2023-05-24T02:25:11;84947.91;;;11.48
73662;BMP280;61956;52.540;13.382;2023-05-24T02:27:40;85572.06;;;11.53
73662;BMP280;61956;52.540;13.382;2023-05-24T02:30:14;85364.69;;;11.53
73662;BMP280;61956;52.540;13.382;2023-05-24T02:32:43;83714.53;;;11.39
73662;BMP280;61956;52.540;13.382;2023-05-24T02:35:13;84005.69;;;11.38
73662;BMP280;61956;52.540;13.382;2023-05-24T02:37:42;83914.00;;;11.37
73662;BMP280;61956;52.540;13.382;2023-05-24T02:40:12;83464.09;;;11.33
73662;BMP280;61956;52.540;13.382;2023-05-24T02:42:42;84211.63;;;11.36
73662;BMP280;61956;52.540;13.382;2023-05-24T02:45:14;84656.53;;;11.41
73662;BMP280;61956;52.540;13.382;2023-05-24T02:47:43;85087.31;;;11.42
73662;BMP280;61956;52.540;13.382;2023-05-24T02:50:12;85496.31;;;11.47
73662;BMP280;61956;52.540;13.382;2023-05-24T02:52:42;85316.69;;;11.46
73662;BMP280;61956;52.540;13.382;2023-05-24T02:55:11;84105.75;;;11.38
73662;BMP280;61956;52.540;13.382;2023-05-24T02:57:40;82745.34;;;11.26
73662;BMP280;61956;52.540;13.382;2023-05-24T03:00:11;84552.53;;;11.36
73662;BMP280;61956;52.540;13.382;2023-05-24T03:02:44;84583.53;;;11.38
73662;BMP280;61956;52.540;13.382;2023-05-24T03:05:15;83967.59;;;11.31
73662;BMP280;61956;52.540;13.382;2023-05-24T03:07:44;84462.09;;;11.34
73662;BMP280;61956;52.540;13.382;2023-05-24T03:10:14;83744.91;;;11.28
73662;BMP280;61956;52.540;13.382;2023-05-24T03:12:43;82015.47;;;11.13
73662;BMP280;61956;52.540;13.382;2023-05-24T03:15:13;82960.34;;;11.16
73662;BMP280;61956;52.540;13.382;2023-05-24T03:17:45;82579.78;;;11.13
73662;BMP280;61956;52.540;13.382;2023-05-24T03:20:15;81522.53;;;11.03
73662;BMP280;61956;52.540;13.382;2023-05-24T03:22:45;81897.81;;;11.02
73662;BMP280;61956;52.540;13.382;2023-05-24T03:25:15;81883.03;;;11.00
73662;BMP280;61956;52.540;13.382;2023-05-24T03:27:44;82819.22;;;11.06
73662;BMP280;61956;52.540;13.382;2023-05-24T03:30:14;82766.31;;;11.05
73662;BMP280;61956;52.540;13.382;2023-05-24T03:32:54;81466.75;;;10.95
73662;BMP280;61956;52.540;13.382;2023-05-24T03:35:24;81727.84;;;10.94
73662;BMP280;61956;52.540;13.382;2023-05-24T03:37:55;83293.34;;;11.04
73662;BMP280;61956;52.540;13.382;2023-05-24T03:40:26;83264.94;;;11.04
73662;BMP280;61956;52.540;13.382;2023-05-24T03:43:04;85127.47;;;11.17
73662;BMP280;61956;52.540;13.382;2023-05-24T03:45:59;84638.78;;;11.17
73662;BMP280;61956;52.540;13.382;2023-05-24T03:48:31;84194.69;;;11.14
73662;BMP280;61956;52.540;13.382;2023-05-24T03:51:00;84078.50;;;11.12
73662;BMP280;61956;52.540;13.382;2023-05-24T03:53:29;83849.44;;;11.11
73662;BMP280;61956;52.540;13.382;2023-05-24T03:55:59;84196.00;;;11.13
73662;BMP280;61956;52.540;13.382;2023-05-24T03:58:28;86760.75;;;11.31
73662;BMP280;61956;52.540;13.382;2023-05-24T04:00:57;85318.13;;;11.25
73662;BMP280;61956;52.540;13.382;2023-05-24T04:03:27;85376.28;;;11.26
73662;BMP280;61956;52.540;13.382;2023-05-24T04:06:01;85089.53;;;11.24
73662;BMP280;61956;52.540;13.382;2023-05-24T04:08:30;86349.22;;;11.33
73662;BMP280;61956;52.540;13.382;2023-05-24T04:10:59;85736.72;;;11.29
73662;BMP280;61956;52.540;13.382;2023-05-24T04:13:29;86226.47;;;11.32
73662;BMP280;61956;52.540;13.382;2023-05-24T04:15:58;86330.56;;;11.34
73662;BMP280;61956;52.540;13.382;2023-05-24T04:18:29;86353.25;;;11.36
73662;BMP280;61956;52.540;13.382;2023-05-24T04:21:01;85458.38;;;11.29
73662;BMP280;61956;52.540;13.382;2023-05-24T04:23:30;85701.94;;;11.32
73662;BMP280;61956;52.540;13.382;2023-05-24T04:25:59;86554.25;;;11.37
73662;BMP280;61956;52.540;13.382;2023-05-24T04:28:29;87876.63;;;11.48
73662;BMP280;61956;52.540;13.382;2023-05-24T04:30:58;88142.78;;;11.54
73662;BMP280;61956;52.540;13.382;2023-05-24T04:33:28;85637.47;;;11.36
73662;BMP280;61956;52.540;13.382;2023-05-24T04:36:01;86596.44;;;11.42
73662;BMP280;61956;52.540;13.382;2023-05-24T04:38:31;86520.81;;;11.42
73662;BMP280;61956;52.540;13.382;2023-05-24T04:41:01;85908.84;;;11.38
73662;BMP280;61956;52.540;13.382;2023-05-24T04:43:31;86537.59;;;11.41
73662;BMP280;61956;52.540;13.382;2023-05-24T04:46:00;85981.22;;;11.38
73662;BMP280;61956;52.540;13.382;2023-05-24T04:48:29;86908.66;;;11.44
73662;BMP280;61956;52.540;13.382;2023-05-24T04:51:01;86118.22;;;11.40
73662;BMP280;61956;52.540;13.382;2023-05-24T04:53:30;85692.97;;;11.35
73662;BMP280;61956;52.540;13.382;2023-05-24T04:56:00;86401.25;;;11.41
73662;BMP280;61956;52.540;13.382;2023-05-24T04:58:29;85468.13;;;11.33
73662;BMP280;61956;52.540;13.382;2023-05-24T05:00:58;86890.56;;;11.44
73662;BMP280;61956;52.540;13.382;2023-05-24T05:03:27;87560.56;;;11.50
73662;BMP280;61956;52.540;13.382;2023-05-24T05:05:56;87192.03;;;11.49
73662;BMP280;61956;52.540;13.382;2023-05-24T05:08:28;89274.25;;;11.64
73662;BMP280;61956;52.540;13.382;2023-05-24T05:10:57;88597.47;;;11.63
73662;BMP280;61956;52.540;13.382;2023-05-24T05:13:27;88332.88;;;11.62
73662;BMP280;61956;52.540;13.382;2023-05-24T05:15:56;87472.44;;;11.57
73662;BMP280;61956;52.540;13.382;2023-05-24T05:18:27;87604.34;;;11.57
73662;BMP280;61956;52.540;13.382;2023-05-24T05:20:56;85996.34;;;11.46
73662;BMP280;61956;52.540;13.382;2023-05-24T05:23:28;86508.75;;;11.46
73662;BMP280;61956;52.540;13.382;2023-05-24T05:25:58;87009.78;;;11.50
73662;BMP280;61956;52.540;13.382;2023-05-24T05:28:27;88172.19;;;11.58
73662;BMP280;61956;52.540;13.382;2023-05-24T05:30:56;89680.69;;;11.72
73662;BMP280;61956;52.540;13.382;2023-05-24T05:33:25;88621.06;;;11.67
73662;BMP280;61956;52.540;13.382;2023-05-24T05:35:55;86926.03;;;11.55
73662;BMP280;61956;52.540;13.382;2023-05-24T05:38:24;86845.78;;;11.53
73662;BMP280;61956;52.540;13.382;2023-05-24T05:40:55;87231.06;;;11.53
73662;BMP280;61956;52.540;13.382;2023-05-24T05:43:25;87808.81;;;11.59
73662;BMP280;61956;52.540;13.382;2023-05-24T05:45:54;88827.41;;;11.67
73662;BMP280;61956;52.540;13.382;2023-05-24T05:48:25;89234.44;;;11.75
73662;BMP280;61956;52.540;13.382;2023-05-24T05:50:54;88752.84;;;11.73
73662;BMP280;61956;52.540;13.382;2023-05-24T05:53:23;88749.53;;;11.72
73662;BMP280;61956;52.540;13.382;2023-05-24T05:55:55;87610.56;;;11.64
73662;BMP280;61956;52.540;13.382;2023-05-24T05:58:24;88996.97;;;11.75
73662;BMP280;61956;52.540;13.382;2023-05-24T06:00:53;87038.75;;;11.60
73662;BMP280;61956;52.540;13.382;2023-05-24T06:03:22;87847.84;;;11.63
73662;BMP280;61956;52.540;13.382;2023-05-24T06:05:51;88050.63;;;11.68
73662;BMP280;61956;52.540;13.382;2023-05-24T06:08:21;87204.97;;;11.60
73662;BMP280;61956;52.540;13.382;2023-05-24T06:10:50;87485.63;;;11.61
73662;BMP280;61956;52.540;13.382;2023-05-24T06:13:22;88940.38;;;11.72
73662;BMP280;61956;52.540;13.382;2023-05-24T06:15:51;89805.75;;;11.80
73662;BMP280;61956;52.540;13.382;2023-05-24T06:18:20;90463.16;;;11.89
73662;BMP280;61956;52.540;13.382;2023-05-24T06:20:50;91082.06;;;11.98
73662;BMP280;61956;52.540;13.382;2023-05-24T06:23:19;89611.81;;;11.90
73662;BMP280;61956;52.540;13.382;2023-05-24T06:25:48;90598.75;;;11.97
73662;BMP280;61956;52.540;13.382;2023-05-24T06:28:17;89665.16;;;11.93
73662;BMP280;61956;52.540;13.382;2023-05-24T06:30:50;89177.31;;;11.88
73662;BMP280;61956;52.540;13.382;2023-05-24T06:33:19;88900.28;;;11.88
73662;BMP280;61956;52.540;13.382;2023-05-24T06:35:48;90728.50;;;11.99
73662;BMP280;61956;52.540;13.382;2023-05-24T06:38:17;92744.53;;;12.19
73662;BMP280;61956;52.540;13.382;2023-05-24T06:40:47;92101.41;;;12.19
73662;BMP280;61956;52.540;13.382;2023-05-24T06:43:16;94188.00;;;12.42
73662;BMP280;61956;52.540;13.382;2023-05-24T06:45:45;94290.97;;;12.48
73662;BMP280;61956;52.540;13.382;2023-05-24T06:48:17;92309.38;;;12.38
73662;BMP280;61956;52.540;13.382;2023-05-24T06:50:46;91898.59;;;12.35
73662;BMP280;61956;52.540;13.382;2023-05-24T06:53:15;89923.38;;;12.19
73662;BMP280;61956;52.540;13.382;2023-05-24T06:55:45;91882.06;;;12.33
73662;BMP280;61956;52.540;13.382;2023-05-24T06:58:14;91564.56;;;12.34
73662;BMP280;61956;52.540;13.382;2023-05-24T07:00:43;88941.09;;;12.13
73662;BMP280;61956;52.540;13.382;2023-05-24T07:03:12;88743.94;;;12.08
73662;BMP280;61956;52.540;13.382;2023-05-24T07:05:44;88883.75;;;12.08
73662;BMP280;61956;52.540;13.382;2023-05-24T07:08:13;88279.75;;;11.98
73662;BMP280;61956;52.540;13.382;2023-05-24T07:10:43;88631.97;;;12.00
73662;BMP280;61956;52.540;13.382;2023-05-24T07:13:12;89323.72;;;12.04
73662;BMP280;61956;52.540;13.382;2023-05-24T07:15:42;92425.03;;;12.30
73662;BMP280;61956;52.540;13.382;2023-05-24T07:18:11;92951.94;;;12.41
73662;BMP280;61956;52.540;13.382;2023-05-24T07:20:40;94917.00;;;12.61
73662;BMP280;61956;52.540;13.382;2023-05-24T07:23:12;94366.34;;;12.65
73662;BMP280;61956;52.540;13.382;2023-05-24T07:25:42;93255.22;;;12.61
73662;BMP280;61956;52.540;13.382;2023-05-24T07:28:11;92844.09;;;12.58
73662;BMP280;61956;52.540;13.382;2023-05-24T07:30:42;92606.47;;;12.57
73662;BMP280;61956;52.540;13.382;2023-05-24T07:33:12;93238.06;;;12.64
73662;BMP280;61956;52.540;13.382;2023-05-24T07:35:41;94342.06;;;12.75
73662;BMP280;61956;52.540;13.382;2023-05-24T07:38:18;96946.78;;;13.02
73662;BMP280;61956;52.540;13.382;2023-05-24T07:40:47;93456.91;;;12.86
73662;BMP280;61956;52.540;13.382;2023-05-24T07:43:17;93837.53;;;12.87
73662;BMP280;61956;52.540;13.382;2023-05-24T07:45:46;93778.84;;;12.90
73662;BMP280;61956;52.540;13.382;2023-05-24T07:48:15;93175.44;;;12.83
73662;BMP280;61956;52.540;13.382;2023-05-24T07:50:45;93872.28;;;12.93
73662;BMP280;61956;52.540;13.382;2023-05-24T07:53:14;93937.94;;;12.94
73662;BMP280;61956;52.540;13.382;2023-05-24T07:55:46;95150.56;;;13.07
73662;BMP280;61956;52.540;13.382;2023-05-24T07:58:16;95748.50;;;13.18
73662;BMP280;61956;52.540;13.382;2023-05-24T08:00:47;96417.81;;;13.29
73662;BMP280;61956;52.540;13.382;2023-05-24T08:03:17;94484.28;;;13.18
73662;BMP280;61956;52.540;13.382;2023-05-24T08:05:46;93533.63;;;13.13
73662;BMP280;61956;52.540;13.382;2023-05-24T08:08:16;92400.13;;;13.01
73662;BMP280;61956;52.540;13.382;2023-05-24T08:10:48;93750.09;;;13.09
73662;BMP280;61956;52.540;13.382;2023-05-24T08:13:17;92653.75;;;13.04
73662;BMP280;61956;52.540;13.382;2023-05-24T08:15:47;90757.28;;;12.86
73662;BMP280;61956;52.540;13.382;2023-05-24T08:18:17;90885.59;;;12.85
73662;BMP280;61956;52.540;13.382;2023-05-24T08:20:46;90573.63;;;12.79
73662;BMP280;61956;52.540;13.382;2023-05-24T08:23:15;92314.53;;;12.92
73662;BMP280;61956;52.540;13.382;2023-05-24T08:25:49;91883.34;;;12.90
73662;BMP280;61956;52.540;13.382;2023-05-24T08:28:19;90580.00;;;12.78
73662;BMP280;61956;52.540;13.382;2023-05-24T08:30:48;91512.84;;;12.84
73662;BMP280;61956;52.540;13.382;2023-05-24T08:33:18;93777.03;;;13.03
73662;BMP280;61956;52.540;13.382;2023-05-24T08:35:47;94518.50;;;13.13
73662;BMP280;61956;52.540;13.382;2023-05-24T08:38:17;93062.94;;;13.05
73662;BMP280;61956;52.540;13.382;2023-05-24T08:40:49;94001.31;;;13.13
73662;BMP280;61956;52.540;13.382;2023-05-24T08:43:19;95109.56;;;13.26
73662;BMP280;61956;52.540;13.382;2023-05-24T08:45:51;95338.38;;;13.33
73662;BMP280;61956;52.540;13.382;2023-05-24T08:48:22;93658.84;;;13.20
73662;BMP280;61956;52.540;13.382;2023-05-24T08:50:54;94396.47;;;13.25
73662;BMP280;61956;52.540;13.382;2023-05-24T08:53:25;93497.31;;;13.22
73662;BMP280;61956;52.540;13.382;2023-05-24T08:55:57;94376.03;;;13.27
73662;BMP280;61956;52.540;13.382;2023-05-24T08:58:28;95246.94;;;13.38
73662;BMP280;61956;52.540;13.382;2023-05-24T09:00:58;94939.69;;;13.40
73662;BMP280;61956;52.540;13.382;2023-05-24T09:03:29;96304.72;;;13.53
73662;BMP280;61956;52.540;13.382;2023-05-24T09:06:00;95350.19;;;13.52
73662;BMP280;61956;52.540;13.382;2023-05-24T09:08:31;94142.16;;;13.40
73662;BMP280;61956;52.540;13.382;2023-05-24T09:11:06;94855.63;;;13.50
73662;BMP280;61956;52.540;13.382;2023-05-24T09:13:36;94179.59;;;13.43
73662;BMP280;61956;52.540;13.382;2023-05-24T09:16:06;96430.53;;;13.65
73662;BMP280;61956;52.540;13.382;2023-05-24T09:18:36;98423.91;;;13.88
73662;BMP280;61956;52.540;13.382;2023-05-24T09:21:05;98135.59;;;13.92
73662;BMP280;61956;52.540;13.382;2023-05-24T09:23:35;98846.66;;;14.07
73662;BMP280;61956;52.540;13.382;2023-05-24T09:26:11;98594.09;;;14.15
73662;BMP280;61956;52.540;13.382;2023-05-24T09:28:41;96763.31;;;14.05
73662;BMP280;61956;52.540;13.382;2023-05-24T09:31:10;94432.50;;;13.83
73662;BMP280;61956;52.540;13.382;2023-05-24T09:33:39;93454.00;;;13.72
73662;BMP280;61956;52.540;13.382;2023-05-24T09:36:09;94779.75;;;13.78
73662;BMP280;61956;52.540;13.382;2023-05-24T09:38:39;94152.00;;;13.78
73662;BMP280;61956;52.540;13.382;2023-05-24T09:41:11;94278.44;;;13.75
73662;BMP280;61956;52.540;13.382;2023-05-24T09:43:47;95094.22;;;13.83
73662;BMP280;61956;52.540;13.382;2023-05-24T09:46:18;96372.13;;;13.96
73662;BMP280;61956;52.540;13.382;2023-05-24T09:48:57;97175.44;;;14.11
73662;BMP280;61956;52.540;13.382;2023-05-24T09:51:29;98680.34;;;14.27
73662;BMP280;61956;52.540;13.382;2023-05-24T09:54:00;95745.34;;;14.11
73662;BMP280;61956;52.540;13.382;2023-05-24T09:56:33;95099.97;;;14.02
73662;BMP280;61956;52.540;13.382;2023-05-24T09:59:05;95000.72;;;14.00
73662;BMP280;61956;52.540;13.382;2023-05-24T10:01:35;96170.94;;;14.10
73662;BMP280;61956;52.540;13.382;2023-05-24T10:04:05;96839.47;;;14.18
73662;BMP280;61956;52.540;13.382;2023-05-24T10:06:35;95091.03;;;14.06
73662;BMP280;61956;52.540;13.382;2023-05-24T10:09:05;95626.28;;;14.07
73662;BMP280;61956;52.540;13.382;2023-05-24T10:11:38;98409.47;;;14.34
73662;BMP280;61956;52.540;13.382;2023-05-24T10:14:08;95686.91;;;14.19
73662;BMP280;61956;52.540;13.382;2023-05-24T10:16:38;98376.34;;;14.43
73662;BMP280;61956;52.540;13.382;2023-05-24T10:19:07;97776.63;;;14.47
73662;BMP280;61956;52.540;13.382;2023-05-24T10:21:39;98703.00;;;14.57
73662;BMP280;61956;52.540;13.382;2023-05-24T10:24:12;101308.59;;;14.92
73662;BMP280;61956;52.540;13.382;2023-05-24T10:26:49;102992.03;;;15.22
73662;BMP280;61956;52.540;13.382;2023-05-24T10:29:26;104203.22;;;15.53
73662;BMP280;61956;52.540;13.382;2023-05-24T10:32:08;104212.03;;;15.75
73662;BMP280;61956;52.540;13.382;2023-05-24T10:34:38;102987.44;;;15.82
73662;BMP280;61956;52.540;13.382;2023-05-24T10:37:08;104844.72;;;16.10
73662;BMP280;61956;52.540;13.382;2023-05-24T10:39:37;100395.72;;;15.83
73662;BMP280;61956;52.540;13.382;2023-05-24T10:42:09;100141.34;;;15.72
73662;BMP280;61956;52.540;13.382;2023-05-24T10:44:42;99511.19;;;15.72
73662;BMP280;61956;52.540;13.382;2023-05-24T10:47:12;99637.16;;;15.74
73662;BMP280;61956;52.540;13.382;2023-05-24T10:49:49;96319.13;;;15.46
73662;BMP280;61956;52.540;13.382;2023-05-24T10:52:20;96040.94;;;15.35
73662;BMP280;61956;52.540;13.382;2023-05-24T10:55:07;98665.53;;;15.57
73662;BMP280;61956;52.540;13.382;2023-05-24T10:57:40;96878.19;;;15.45
73662;BMP280;61956;52.540;13.382;2023-05-24T11:00:25;94677.75;;;15.23
73662;BMP280;61956;52.540;13.382;2023-05-24T11:03:02;95211.03;;;15.18
73662;BMP280;61956;52.540;13.382;2023-05-24T11:05:34;91813.25;;;14.86
73662;BMP280;61956;52.540;13.382;2023-05-24T11:08:21;92696.03;;;14.80
73662;BMP280;61956;52.540;13.382;2023-05-24T11:11:02;93745.97;;;14.86
73662;BMP280;61956;52.540;13.382;2023-05-24T11:13:39;93861.78;;;14.85
73662;BMP280;61956;52.540;13.382;2023-05-24T11:16:32;93548.66;;;14.77
73662;BMP280;61956;52.540;13.382;2023-05-24T11:19:13;95232.19;;;14.93
73662;BMP280;61956;52.540;13.382;2023-05-24T11:21:45;93968.69;;;14.81
73662;BMP280;61956;52.540;13.382;2023-05-24T11:24:17;95795.44;;;14.93
73662;BMP280;61956;52.540;13.382;2023-05-24T11:26:47;98658.97;;;15.25
73662;BMP280;61956;52.540;13.382;2023-05-24T11:29:21;99267.69;;;15.43
73662;BMP280;61956;52.540;13.382;2023-05-24T11:31:51;99095.91;;;15.48
73662;BMP280;61956;52.540;13.382;2023-05-24T11:34:22;100771.38;;;15.74
73662;BMP280;61956;52.540;13.382;2023-05-24T11:36:52;99644.25;;;15.74
73662;BMP280;61956;52.540;13.382;2023-05-24T11:39:23;100262.84;;;15.85
73662;BMP280;61956;52.540;13.382;2023-05-24T11:41:57;100097.47;;;15.93
73662;BMP280;61956;52.540;13.382;2023-05-24T11:44:31;101002.47;;;16.05
73662;BMP280;61956;52.540;13.382;2023-05-24T11:47:04;100843.59;;;16.11
73662;BMP280;61956;52.540;13.382;2023-05-24T11:49:35;99993.88;;;16.11
73662;BMP280;61956;52.540;13.382;2023-05-24T11:52:04;100017.16;;;16.13
73662;BMP280;61956;52.540;13.382;2023-05-24T11:54:34;101857.88;;;16.37
73662;BMP280;61956;52.540;13.382;2023-05-24T11:57:04;100111.09;;;16.33
73662;BMP280;61956;52.540;13.382;2023-05-24T11:59:37;98378.97;;;16.16
73662;BMP280;61956;52.540;13.382;2023-05-24T12:02:06;98487.13;;;16.11
73662;BMP280;61956;52.540;13.382;2023-05-24T12:04:35;96388.28;;;15.88
73662;BMP280;61956;52.540;13.382;2023-05-24T12:07:09;96632.72;;;15.86
73662;BMP280;61956;52.540;13.382;2023-05-24T12:09:41;95568.25;;;15.74
73662;BMP280;61956;52.540;13.382;2023-05-24T12:12:11;93323.84;;;15.46
73662;BMP280;61956;52.540;13.382;2023-05-24T12:14:43;93392.56;;;15.34
73662;BMP280;61956;52.540;13.382;2023-05-24T12:17:15;93956.94;;;15.33
73662;BMP280;61956;52.540;13.382;2023-05-24T12:19:47;94864.44;;;15.40
73662;BMP280;61956;52.540;13.382;2023-05-24T12:22:18;96169.22;;;15.51
73662;BMP280;61956;52.540;13.382;2023-05-24T12:24:48;97174.28;;;15.63
73662;BMP280;61956;52.540;13.382;2023-05-24T12:27:18;96118.88;;;15.54
73662;BMP280;61956;52.540;13.382;2023-05-24T12:29:52;95560.28;;;15.50
73662;BMP280;61956;52.540;13.382;2023-05-24T12:32:21;96791.84;;;15.61
73662;BMP280;61956;52.540;13.382;2023-05-24T12:34:50;97693.97;;;15.72
73662;BMP280;61956;52.540;13.382;2023-05-24T12:37:21;99134.50;;;15.91
73662;BMP280;61956;52.540;13.382;2023-05-24T12:39:51;99358.09;;;16.02
73662;BMP280;61956;52.540;13.382;2023-05-24T12:42:20;99203.16;;;16.05
73662;BMP280;61956;52.540;13.382;2023-05-24T12:44:52;100720.28;;;16.27
73662;BMP280;61956;52.540;13.382;2023-05-24T12:47:22;98278.72;;;16.12
73662;BMP280;61956;52.540;13.382;2023-05-24T12:49:51;97659.53;;;16.01
73662;BMP280;61956;52.540;13.382;2023-05-24T12:52:21;98291.69;;;16.08
73662;BMP280;61956;52.540;13.382;2023-05-24T12:54:50;100374.97;;;16.31
73662;BMP280;61956;52.540;13.382;2023-05-24T12:57:19;99283.91;;;16.29
73662;BMP280;61956;52.540;13.382;2023-05-24T12:59:49;99580.88;;;16.32
73662;BMP280;61956;52.540;13.382;2023-05-24T13:02:20;101649.88;;;16.59
73662;BMP280;61956;52.540;13.382;2023-05-24T13:04:49;99896.41;;;16.52
73662;BMP280;61956;52.540;13.382;2023-05-24T13:07:19;101089.22;;;16.65
73662;BMP280;61956;52.540;13.382;2023-05-24T13:09:48;102121.97;;;16.85
73662;BMP280;61956;52.540;13.382;2023-05-24T13:12:17;102316.28;;;17.00
73662;BMP280;61956;52.540;13.382;2023-05-24T13:14:47;102681.22;;;17.16
73662;BMP280;61956;52.540;13.382;2023-05-24T13:17:21;101215.38;;;17.04
73662;BMP280;61956;52.540;13.382;2023-05-24T13:19:50;100177.72;;;17.02
73662;BMP280;61956;52.540;13.382;2023-05-24T13:22:22;101124.91;;;17.11
73662;BMP280;61956;52.540;13.382;2023-05-24T13:24:51;99193.19;;;16.99
73662;BMP280;61956;52.540;13.382;2023-05-24T13:27:20;96202.31;;;16.57
73662;BMP280;61956;52.540;13.382;2023-05-24T13:29:49;97632.81;;;16.63
73662;BMP280;61956;52.540;13.382;2023-05-24T13:32:22;99827.69;;;16.88
73662;BMP280;61956;52.540;13.382;2023-05-24T13:34:51;98323.31;;;16.76
73662;BMP280;61956;52.540;13.382;2023-05-24T13:37:20;97632.13;;;16.66
73662;BMP280;61956;52.540;13.382;2023-05-24T13:39:50;99548.84;;;16.80
73662;BMP280;61956;52.540;13.382;2023-05-24T13:42:19;97685.13;;;16.63
73662;BMP280;61956;52.540;13.382;2023-05-24T13:44:49;99264.50;;;16.79
73662;BMP280;61956;52.540;13.382;2023-05-24T13:47:22;99478.03;;;16.85
73662;BMP280;61956;52.540;13.382;2023-05-24T13:49:51;102706.78;;;17.20
73662;BMP280;61956;52.540;13.382;2023-05-24T13:52:21;102073.47;;;17.38
73662;BMP280;61956;52.540;13.382;2023-05-24T13:54:51;101102.09;;;17.32
73662;BMP280;61956;52.540;13.382;2023-05-24T13:57:20;100960.19;;;17.34
73662;BMP280;61956;52.540;13.382;2023-05-24T13:59:49;102135.34;;;17.51
73662;BMP280;61956;52.540;13.382;2023-05-24T14:02:18;103038.59;;;17.73
73662;BMP280;61956;52.540;13.382;2023-05-24T14:04:50;101389.38;;;17.66
73662;BMP280;61956;52.540;13.382;2023-05-24T14:07:20;101836.31;;;17.66
73662;BMP280;61956;52.540;13.382;2023-05-24T14:09:49;101666.00;;;17.70
73662;BMP280;61956;52.540;13.382;2023-05-24T14:12:18;104322.34;;;18.13
73662;BMP280;61956;52.540;13.382;2023-05-24T14:14:47;101797.16;;;17.97
73662;BMP280;61956;52.540;13.382;2023-05-24T14:17:16;99755.72;;;17.75
73662;BMP280;61956;52.540;13.382;2023-05-24T14:19:48;98616.81;;;17.53